Aeroporto :
LOGIN :

Iscrizione | Disclaimer

   EN    FR    IT 

 










Sommario :    VFR   VFR Marginale   IFR   IFR Intensivo   IFR Molto Intensivo
Visibilità : 
Base nubi : 
>= 8 km
>= 3000ft
5 / 8 km
1000 / 3000 ft
1500m / 5 km
500 / 1000 ft
800 / 1500m
200 / 500 ft
< 800m
< 200 ft
Simboli :   Temporali  Nebbia  Neve Forte  Precipitazioni Forti  Vento > 20 kt
SIGMETs :   Varie  Temporali  Ghiacco  Turbolenza  Onda orograficha  Ceneri Vulcaniche






- Altitudine del aeroporto : 90 ft
- Codice IATA : NTE


LFRS - Nantes

ULTIMO METAR :
  • 281830Z AUTO 08011KT CAVOK 26/11 Q1022 NOSIG

METARs OBSOLETI :
  • 281800Z AUTO 08010KT 050V110 CAVOK 26/11 Q1023 NOSIG
  • 281730Z AUTO 09010KT 030V120 CAVOK 26/10 Q1023 NOSIG
  • 281700Z AUTO 09012KT CAVOK 27/11 Q1023 NOSIG
  • 281630Z AUTO 07010KT 020V110 CAVOK 27/12 Q1023 NOSIG
  • 281600Z AUTO 06010KT 010V100 CAVOK 27/11 Q1023 NOSIG

TAF TAF LFRS
Valido dal 28 a 18 ore il 30 a 00 ore UTC


281700Z 2818/2924 05010KT CAVOK
ATIS : +33 2 40 05 12 74



MetMap, La meteo Aeronautica in un colpo d'occhio ! - Copyright ORBIFLY Dicembre 2007 - Disclaimer

ORBIFLY MET'MAP TEAM :

Programmazione e sviluppo : Alexandra Zaïnal
Concezione : Baudouin d'Aumeries
Aiuto per la programmazione : Marc-Olivier Méhu
Supporto tecnico e logistico : Manuel Goepfert
Aiuto per la traduzione : Arnaldo La Scala

Contatto : metmap@orbifly.com




FONTI E CREDITI :

   NOAA